Aer Arann AT42 at Dublin on Jun 12th 2012, burst tyre(s) on landing

Last Update: June 12, 2012 / 15:55:13 GMT/Zulu time

Bookmark this article
Incident Facts

Date of incident
Jun 12, 2012

Airline
Aer Arann

Flight number
RE-3213

Destination
Dublin, Ireland

Aircraft Registration
EI-CBK

Aircraft Type
ATR ATR-42

ICAO Type Designator
AT42

An Aer Arann Avion de Transport Regional ATR-42-300 on behalf of Aer Lingus, registration EI-CBK performing flight RE-3213/EI-3213 from Isle of Man (UK) to Dublin (Ireland) with 29 passengers, landed on Dublin's runway 10 at 10:34L (09:34Z) when an observer reported smoke from the arriving ATR's gear on ground frequency. After the aircraft had stopped on the runway the crew reported to tower they had burst a tyre and requested emergency services to have a look. Emergency services confirmed the outboard left main tyre and possibly the inboard left main tyre had blown. The passengers disembarked normally onto the runway.

Runway 10/28 was closed for about 4 hours until the aircraft was towed off the runway as a result, runway 16 was used instead.

Metars:
EIDW 121030Z 12008KT 080V150 9999 FEW016 SCT025 BKN040 13/08 Q1011 NOSIG
EIDW 121000Z 14007KT 100V160 9999 FEW016 SCT025 BKN040 13/08 Q1011 NOSIG
EIDW 120930Z 12008KT 090V160 9999 FEW016 SCT025 BKN050 13/09 Q1011 NOSIG
EIDW 120900Z 12008KT 9999 FEW016 SCT025 BKN050 13/09 Q1011 NOSIG
EIDW 120830Z 13007KT 9999 FEW009 SCT020 BKN070 13/08 Q1010 NOSIG
EIDW 120800Z 12008KT 9999 FEW009 SCT020 BKN070 13/08 Q1010 NOSIG
EIDW 120730Z 12008KT 9999 FEW009 SCT020 BKN070 12/09 Q1010 NOSIG
EIDW 120700Z 14005KT 100V180 9999 FEW009 BKN070 BKN120 12/09 Q1010 NOSIG
Aircraft Registration Data
Registration mark
EI-CBK
Country of Registration
Ireland
Date of Registration
KAenmihikic ljmkd Subscribe to unlock
Manufacturer
ATR-GIE AVIONS DE TRANSPORT REGIONAL
Aircraft Model / Type
ATR 42-300
ICAO Aircraft Type
AT42
Year of Manufacture
Serial Number
Maximum Take off Mass (MTOM) [kg]
Engine Count
Engine
Main Owner
C pedgibhfmhfejej ApAkfelnmpie q ngbcgblihnegqdcjpicfjlj l Subscribe to unlock
Incident Facts

Date of incident
Jun 12, 2012

Airline
Aer Arann

Flight number
RE-3213

Destination
Dublin, Ireland

Aircraft Registration
EI-CBK

Aircraft Type
ATR ATR-42

ICAO Type Designator
AT42

This article is published under license from Avherald.com. © of text by Avherald.com.
Article source

You can read 2 more free articles without a subscription.

Subscribe now and continue reading without any limits!

Are you a subscriber? Login
Subscribe

Read unlimited articles and receive our daily update briefing. Gain better insights into what is happening in commercial aviation safety.

Send tip

Support AeroInside by sending a small tip amount.

Related articles

Newest articles

Subscribe today

Are you researching aviation incidents? Get access to AeroInside Insights, unlimited read access and receive the daily newsletter.

Pick your plan and subscribe

Partner

Blockaviation logo

A new way to document and demonstrate airworthiness compliance and aircraft value. Find out more.

ELITE Logo

ELITE Simulation Solutions is a leading global provider of Flight Simulation Training Devices, IFR training software as well as flight controls and related services. Find out more.

Blue Altitude Logo

Your regulation partner, specialists in aviation safety and compliance; providing training, auditing, and consultancy services. Find out more.

AeroInside Blog
Popular aircraft
Airbus A320
Boeing 737-800
Boeing 737-800 MAX
Popular airlines
American Airlines
United
Delta
Air Canada
Lufthansa
British Airways